ACA162 CYQB-KBUF
Flight info
| Callsign | ACA162 |
|---|---|
| Flight time | N/A |
| Altitude | 36000 |
| Route | PENTU Q824 CATOG DCT OBTAX DCT TALNO Q951 DAVDA DCT BMPAH |
| Aircraft | A339/H-SADE1E2E3GHIJ3J5M1P2RWXY/LB2D1 |
Departure
| Time | 2026-05-04 02:32 |
|---|---|
| Airport | Quebec Jean Lesage International Airport (CYQB) |
Arrival
| Time | N/A |
|---|---|
| Airport | Buffalo Niagara International Airport (KBUF) |
| Time | Latitude | Longitude | Altitude | Speed | Heading |
|---|---|---|---|---|---|
| 2026-05-04 01:55 | 46.79191 | -71.38506 | 244 ft | 0 kts | 115° |
| 2026-05-04 02:14 | 46.79208 | -71.38560 | 244 ft | 14 kts | 115° |
| 2026-05-04 02:15 | 46.79253 | -71.38702 | 245 ft | 0 kts | 115° |
| 2026-05-04 02:15 | 46.79249 | -71.38689 | 244 ft | 6 kts | 114° |
| 2026-05-04 02:15 | 46.79250 | -71.38621 | 244 ft | 3 kts | 58° |
| 2026-05-04 02:15 | 46.79256 | -71.38617 | 244 ft | 0 kts | 34° |
| 2026-05-04 02:16 | 46.79267 | -71.38609 | 244 ft | 4 kts | 27° |
| 2026-05-04 02:16 | 46.79278 | -71.38601 | 244 ft | 0 kts | 26° |
| 2026-05-04 02:16 | 46.79280 | -71.38600 | 244 ft | 3 kts | 26° |
| 2026-05-04 02:17 | 46.79386 | -71.38580 | 244 ft | 25 kts | 8° |
| 2026-05-04 02:17 | 46.79548 | -71.38394 | 243 ft | 35 kts | 57° |
| 2026-05-04 02:17 | 46.79649 | -71.38196 | 243 ft | 41 kts | 45° |
| 2026-05-04 02:25 | 46.79793 | -71.38052 | 242 ft | 34 kts | 7° |
| 2026-05-04 02:25 | 46.79855 | -71.38045 | 242 ft | 7 kts | 1° |
| 2026-05-04 02:25 | 46.79924 | -71.38064 | 243 ft | 6 kts | 329° |
| 2026-05-04 02:26 | 46.79930 | -71.38071 | 243 ft | 0 kts | 324° |
| 2026-05-04 02:28 | 46.79951 | -71.38100 | 243 ft | 10 kts | 308° |
| 2026-05-04 02:29 | 46.79934 | -71.38187 | 243 ft | 0 kts | 227° |
| 2026-05-04 02:30 | 46.79933 | -71.38189 | 243 ft | 6 kts | 227° |
| 2026-05-04 02:31 | 46.79755 | -71.38451 | 244 ft | 67 kts | 225° |
| 2026-05-04 02:31 | 46.79287 | -71.39125 | 247 ft | 121 kts | 224° |
| 2026-05-04 02:31 | 46.78565 | -71.40164 | 252 ft | 169 kts | 225° |
| 2026-05-04 02:31 | 46.77666 | -71.41457 | 618 ft | 183 kts | 225° |
| 2026-05-04 02:32 | 46.76789 | -71.42709 | 1436 ft | 171 kts | 225° |
| 2026-05-04 02:32 | 46.75916 | -71.43978 | 1848 ft | 188 kts | 225° |
| 2026-05-04 02:32 | 46.74926 | -71.45412 | 1970 ft | 214 kts | 225° |
| 2026-05-04 02:32 | 46.73808 | -71.47003 | 2034 ft | 238 kts | 225° |
| 2026-05-04 02:33 | 46.72569 | -71.48792 | 2131 ft | 268 kts | 225° |
| 2026-05-04 02:33 | 46.71269 | -71.50667 | 3258 ft | 253 kts | 225° |
| 2026-05-04 02:33 | 46.69995 | -71.52477 | 4082 ft | 261 kts | 225° |
| 2026-05-04 02:33 | 46.68691 | -71.54353 | 4827 ft | 265 kts | 225° |
| 2026-05-04 02:34 | 46.67380 | -71.56246 | 5613 ft | 267 kts | 225° |
| 2026-05-04 02:34 | 46.66040 | -71.58145 | 6333 ft | 270 kts | 224° |
| 2026-05-04 02:34 | 46.64689 | -71.60075 | 7043 ft | 274 kts | 225° |
| 2026-05-04 02:34 | 46.63561 | -71.61709 | 7616 ft | 276 kts | 225° |
| 2026-05-04 02:35 | 46.62200 | -71.63648 | 8253 ft | 279 kts | 224° |
| 2026-05-04 02:35 | 46.60799 | -71.65625 | 8873 ft | 282 kts | 225° |
| 2026-05-04 02:35 | 46.59401 | -71.67639 | 9497 ft | 284 kts | 225° |
| 2026-05-04 02:35 | 46.57985 | -71.69668 | 10088 ft | 289 kts | 224° |
| 2026-05-04 02:36 | 46.56486 | -71.71784 | 10108 ft | 315 kts | 225° |
| 2026-05-04 02:36 | 46.55015 | -71.74340 | 10013 ft | 345 kts | 233° |
| 2026-05-04 02:36 | 46.53524 | -71.77247 | 10019 ft | 371 kts | 232° |
| 2026-05-04 02:36 | 46.51843 | -71.80267 | 9998 ft | 398 kts | 230° |
| 2026-05-04 02:37 | 46.50045 | -71.83408 | 9997 ft | 423 kts | 231° |
| 2026-05-04 02:37 | 46.48188 | -71.86869 | 9990 ft | 446 kts | 233° |
| 2026-05-04 02:37 | 46.46256 | -71.90535 | 9989 ft | 468 kts | 232° |
| 2026-05-04 02:37 | 46.44166 | -71.94284 | 9983 ft | 488 kts | 231° |
| 2026-05-04 02:38 | 46.41978 | -71.98153 | 9982 ft | 506 kts | 231° |
| 2026-05-04 02:38 | 46.39785 | -72.02231 | 9984 ft | 521 kts | 232° |
| 2026-05-04 02:38 | 46.37537 | -72.06440 | 9986 ft | 534 kts | 232° |
| 2026-05-04 02:38 | 46.35169 | -72.10638 | 9997 ft | 542 kts | 230° |
| 2026-05-04 02:39 | 46.32803 | -72.14802 | 10016 ft | 543 kts | 231° |
| 2026-05-04 02:39 | 46.30490 | -72.19104 | 10030 ft | 542 kts | 233° |
| 2026-05-04 02:39 | 46.28175 | -72.23422 | 10028 ft | 542 kts | 231° |
| 2026-05-04 02:39 | 46.25784 | -72.27608 | 9998 ft | 533 kts | 230° |
| 2026-05-04 02:40 | 46.23480 | -72.31622 | 9977 ft | 505 kts | 231° |
| 2026-05-04 02:40 | 46.21397 | -72.35508 | 9980 ft | 475 kts | 233° |
| 2026-05-04 02:40 | 46.19425 | -72.39171 | 9995 ft | 450 kts | 231° |
| 2026-05-04 02:40 | 46.17471 | -72.42553 | 10014 ft | 428 kts | 230° |
| 2026-05-04 02:41 | 46.15612 | -72.45798 | 10017 ft | 411 kts | 231° |
| 2026-05-04 02:41 | 46.13910 | -72.48946 | 10015 ft | 396 kts | 232° |
| 2026-05-04 02:41 | 46.12231 | -72.52005 | 9994 ft | 383 kts | 231° |
| 2026-05-04 02:41 | 46.10561 | -72.54906 | 9977 ft | 371 kts | 230° |
| 2026-05-04 02:42 | 46.08965 | -72.57732 | 9994 ft | 358 kts | 232° |
| 2026-05-04 02:42 | 46.07449 | -72.60497 | 9992 ft | 346 kts | 232° |
| 2026-05-04 02:42 | 46.05961 | -72.63148 | 9990 ft | 334 kts | 231° |
| 2026-05-04 02:42 | 46.04513 | -72.65678 | 9995 ft | 321 kts | 231° |
| 2026-05-04 02:43 | 46.03144 | -72.68130 | 9997 ft | 308 kts | 232° |
| 2026-05-04 02:43 | 46.01839 | -72.70479 | 9987 ft | 295 kts | 231° |
| 2026-05-04 02:43 | 46.00693 | -72.72489 | 9995 ft | 287 kts | 231° |
| 2026-05-04 02:43 | 45.99449 | -72.74687 | 10006 ft | 287 kts | 231° |
| 2026-05-04 02:44 | 45.98184 | -72.76954 | 9998 ft | 288 kts | 231° |
| 2026-05-04 02:44 | 45.96917 | -72.79184 | 10014 ft | 288 kts | 231° |
| 2026-05-04 02:44 | 45.95647 | -72.81413 | 9997 ft | 289 kts | 231° |
| 2026-05-04 02:44 | 45.94379 | -72.83681 | 10326 ft | 291 kts | 231° |
| 2026-05-04 02:45 | 45.93107 | -72.85932 | 10955 ft | 295 kts | 231° |
| 2026-05-04 02:45 | 45.91760 | -72.88283 | 11115 ft | 314 kts | 231° |
| 2026-05-04 02:45 | 45.90332 | -72.90799 | 11246 ft | 335 kts | 231° |
| 2026-05-04 02:45 | 45.88846 | -72.93378 | 11966 ft | 334 kts | 230° |
| 2026-05-04 02:46 | 45.87352 | -72.95947 | 12629 ft | 338 kts | 230° |
| 2026-05-04 02:46 | 45.85872 | -72.98530 | 13236 ft | 341 kts | 231° |
| 2026-05-04 02:46 | 45.84357 | -73.01170 | 13871 ft | 344 kts | 230° |
| 2026-05-04 02:46 | 45.82815 | -73.03819 | 14475 ft | 348 kts | 230° |
| 2026-05-04 02:47 | 45.81265 | -73.06501 | 15093 ft | 351 kts | 231° |
| 2026-05-04 02:47 | 45.79711 | -73.09210 | 15699 ft | 354 kts | 230° |
| 2026-05-04 02:47 | 45.78127 | -73.11932 | 16297 ft | 357 kts | 230° |
| 2026-05-04 02:47 | 45.76525 | -73.14680 | 16901 ft | 360 kts | 230° |
| 2026-05-04 02:48 | 45.74925 | -73.17460 | 17476 ft | 364 kts | 231° |
| 2026-05-04 02:48 | 45.73302 | -73.20259 | 18032 ft | 367 kts | 230° |
| 2026-05-04 02:48 | 45.71684 | -73.23018 | 18582 ft | 370 kts | 230° |
| 2026-05-04 02:48 | 45.70026 | -73.25875 | 19121 ft | 373 kts | 231° |
| 2026-05-04 02:49 | 45.68290 | -73.28647 | 19637 ft | 376 kts | 226° |
| 2026-05-04 02:49 | 45.66509 | -73.31410 | 20173 ft | 379 kts | 229° |
| 2026-05-04 02:49 | 45.64784 | -73.34285 | 20697 ft | 382 kts | 230° |
| 2026-05-04 02:49 | 45.63017 | -73.37141 | 21211 ft | 385 kts | 227° |
| 2026-05-04 02:50 | 45.61175 | -73.39940 | 21736 ft | 388 kts | 227° |
| 2026-05-04 02:50 | 45.59342 | -73.42802 | 22246 ft | 391 kts | 229° |
| 2026-05-04 02:50 | 45.57564 | -73.45699 | 22744 ft | 394 kts | 229° |
| 2026-05-04 02:50 | 45.55713 | -73.48629 | 23098 ft | 402 kts | 227° |
| 2026-05-04 02:51 | 45.53793 | -73.51575 | 22997 ft | 406 kts | 227° |
| 2026-05-04 02:51 | 45.51908 | -73.54535 | 22987 ft | 400 kts | 229° |
| 2026-05-04 02:51 | 45.50071 | -73.57482 | 22996 ft | 397 kts | 228° |
| 2026-05-04 02:51 | 45.48207 | -73.60394 | 23000 ft | 397 kts | 227° |
| 2026-05-04 02:52 | 45.46331 | -73.63285 | 23002 ft | 397 kts | 227° |
| 2026-05-04 02:52 | 45.44477 | -73.66208 | 23002 ft | 398 kts | 228° |
| 2026-05-04 02:52 | 45.42626 | -73.69139 | 23000 ft | 399 kts | 228° |
| 2026-05-04 02:52 | 45.40771 | -73.72008 | 23000 ft | 399 kts | 227° |
| 2026-05-04 02:53 | 45.38892 | -73.74916 | 23001 ft | 400 kts | 228° |
| 2026-05-04 02:53 | 45.37028 | -73.77853 | 23010 ft | 400 kts | 228° |
| 2026-05-04 02:53 | 45.35146 | -73.80792 | 23509 ft | 400 kts | 227° |
| 2026-05-04 02:53 | 45.33261 | -73.83693 | 24174 ft | 402 kts | 227° |
| 2026-05-04 02:54 | 45.31498 | -73.86436 | 24568 ft | 407 kts | 228° |
| 2026-05-04 02:54 | 45.29590 | -73.89427 | 25091 ft | 409 kts | 227° |
| 2026-05-04 02:54 | 45.27659 | -73.92407 | 25577 ft | 412 kts | 227° |
| 2026-05-04 02:54 | 45.25704 | -73.95412 | 26030 ft | 416 kts | 227° |
| 2026-05-04 02:55 | 45.21959 | -74.01239 | 25991 ft | 421 kts | 227° |
| 2026-05-04 02:55 | 45.19999 | -74.04244 | 25997 ft | 409 kts | 227° |
| 2026-05-04 02:55 | 45.18096 | -74.07168 | 25998 ft | 398 kts | 227° |
| 2026-05-04 02:56 | 45.16257 | -74.10025 | 25990 ft | 388 kts | 227° |
| 2026-05-04 02:56 | 45.14458 | -74.12794 | 25994 ft | 377 kts | 227° |
| 2026-05-04 02:56 | 45.12697 | -74.15478 | 25998 ft | 366 kts | 227° |
| 2026-05-04 02:56 | 45.11001 | -74.18095 | 26017 ft | 355 kts | 228° |
| 2026-05-04 02:57 | 45.09357 | -74.20635 | 25997 ft | 348 kts | 227° |
| 2026-05-04 02:57 | 45.07739 | -74.23095 | 26004 ft | 340 kts | 227° |
| 2026-05-04 02:57 | 45.06151 | -74.25521 | 26011 ft | 333 kts | 227° |
| 2026-05-04 02:57 | 45.04586 | -74.27942 | 26004 ft | 334 kts | 227° |
| 2026-05-04 02:58 | 45.03023 | -74.30328 | 25998 ft | 326 kts | 227° |
| 2026-05-04 02:58 | 45.01496 | -74.32633 | 26007 ft | 318 kts | 227° |
| 2026-05-04 02:58 | 44.99997 | -74.34951 | 26013 ft | 323 kts | 229° |
| 2026-05-04 02:58 | 44.98473 | -74.37338 | 26012 ft | 332 kts | 227° |
| 2026-05-04 02:59 | 44.96878 | -74.39748 | 26012 ft | 337 kts | 227° |
| 2026-05-04 02:59 | 44.95264 | -74.42163 | 26010 ft | 338 kts | 227° |
| 2026-05-04 02:59 | 44.93673 | -74.44552 | 26008 ft | 339 kts | 229° |
| 2026-05-04 02:59 | 44.92361 | -74.47291 | 26014 ft | 338 kts | 246° |
| 2026-05-04 03:00 | 44.91485 | -74.50376 | 26013 ft | 339 kts | 251° |
| 2026-05-04 03:00 | 44.90743 | -74.53532 | 26011 ft | 338 kts | 252° |
| 2026-05-04 03:00 | 44.90015 | -74.56685 | 26012 ft | 338 kts | 252° |
| 2026-05-04 03:00 | 44.89300 | -74.59847 | 26013 ft | 338 kts | 252° |
| 2026-05-04 03:01 | 44.88599 | -74.63012 | 26012 ft | 338 kts | 253° |
| 2026-05-04 03:01 | 44.87900 | -74.66183 | 26011 ft | 338 kts | 253° |
| 2026-05-04 03:01 | 44.87205 | -74.69348 | 26012 ft | 338 kts | 253° |
| 2026-05-04 03:01 | 44.86520 | -74.72478 | 26011 ft | 338 kts | 253° |
| 2026-05-04 03:02 | 44.85825 | -74.75647 | 26012 ft | 339 kts | 253° |
| 2026-05-04 03:02 | 44.85131 | -74.78820 | 26012 ft | 339 kts | 253° |
| 2026-05-04 03:02 | 44.84439 | -74.81986 | 26010 ft | 339 kts | 253° |
| 2026-05-04 03:02 | 44.83746 | -74.85158 | 26012 ft | 339 kts | 253° |
| 2026-05-04 03:03 | 44.83054 | -74.88329 | 26011 ft | 339 kts | 253° |
| 2026-05-04 03:03 | 44.82363 | -74.91500 | 26010 ft | 339 kts | 253° |
| 2026-05-04 03:03 | 44.81673 | -74.94665 | 26011 ft | 339 kts | 253° |
| 2026-05-04 03:03 | 44.80985 | -74.97836 | 26009 ft | 339 kts | 254° |
| 2026-05-04 03:04 | 44.80621 | -75.01052 | 26016 ft | 337 kts | 270° |
| 2026-05-04 03:04 | 44.80662 | -75.04372 | 26011 ft | 339 kts | 271° |
| 2026-05-04 03:04 | 44.80605 | -75.07679 | 26011 ft | 338 kts | 264° |
| 2026-05-04 03:04 | 44.80234 | -75.10942 | 26003 ft | 338 kts | 251° |
| 2026-05-04 03:05 | 44.79176 | -75.13858 | 26074 ft | 334 kts | 236° |
| 2026-05-04 03:05 | 44.78111 | -75.16781 | 26000 ft | 344 kts | 260° |
| 2026-05-04 03:05 | 44.77956 | -75.20091 | 26070 ft | 334 kts | 274° |
| 2026-05-04 03:05 | 44.78096 | -75.23377 | 26142 ft | 343 kts | 271° |
| 2026-05-04 03:06 | 44.78127 | -75.26254 | 26049 ft | 344 kts | 270° |
| 2026-05-04 03:06 | 44.78134 | -75.29172 | 26002 ft | 339 kts | 271° |
| 2026-05-04 03:06 | 44.78188 | -75.32464 | 26009 ft | 336 kts | 271° |
| 2026-05-04 03:07 | 44.77981 | -75.35708 | 25785 ft | 341 kts | 244° |
| 2026-05-04 03:07 | 44.76449 | -75.38312 | 23800 ft | 372 kts | 208° |
| 2026-05-04 03:07 | 44.73691 | -75.39202 | 19019 ft | 462 kts | 178° |
| 2026-05-04 03:07 | 44.70611 | -75.37750 | 12227 ft | 474 kts | 148° |
| 2026-05-04 03:08 | 44.68579 | -75.34472 | 5425 ft | 427 kts | 126° |
| 2026-05-04 03:08 | 44.67815 | -75.31525 | 328 ft | 8 kts | 69° |
| 2026-05-04 03:08 | 44.67813 | -75.31517 | 343 ft | 0 kts | 75° |